Terminal Aerodrome Forecast
Issued by NWS Tulsa, OK

Home | Current Version | Previous Version | Text Only | Print | Product List | Glossary On
Versions: 1 2 3 4 5 6 7 8 9 10 11 12 13
511
FTUS44 KTSA 031722
TAFTUL
TAF
KTUL 031722Z 0318/0418 16007KT P6SM OVC060
      TEMPO 0318/0320 10006KT 5SM -RA BKN025
     FM032100 10007KT 4SM -RA BR OVC015
     FM040000 10005KT 2SM -RA BR OVC007
     FM041500 32004KT P6SM BKN015=

USA.gov is the U.S. government's official web portal to all federal, state and local government web resources and services.